Time;durP1;ratioP1;P1;durP2;ratioP2;P2;SDS_P1;SDS_P2;PMS_P1;PMS_P2;Temp;Humidity;BMP_temperature;BMP_pressure;BME280_temperature;BME280_humidity;BME280_pressure;Samples;Min_cycle;Max_cycle;Signal;HPM_P1;HPM_P2
2022/02/16 00:00:43;;;;;;;3.65;1.60;;;4.40;75.30;;;;;;4978671;28;20042;-65
2022/02/16 00:03:08;;;;;;;3.67;1.73;;;4.40;75.40;;;;;;4979646;28;20038;-67
2022/02/16 00:05:37;;;;;;;1.90;1.45;;;4.30;75.40;;;;;;4980907;28;20033;-67
2022/02/16 00:08:04;;;;;;;3.33;1.60;;;4.30;75.40;;;;;;4980191;28;20042;-66
2022/02/16 00:10:29;;;;;;;2.65;1.42;;;4.30;75.50;;;;;;4979166;28;20061;-66
2022/02/16 00:12:55;;;;;;;1.65;1.40;;;4.30;75.50;;;;;;4978617;28;20462;-67
2022/02/16 00:15:21;;;;;;;1.90;1.58;;;4.40;75.50;;;;;;4980594;28;20038;-67
2022/02/16 00:17:47;;;;;;;2.22;1.50;;;4.40;75.30;;;;;;4978199;28;20034;-65
2022/02/16 00:20:14;;;;;;;2.05;1.40;;;4.40;75.30;;;;;;4980799;28;20053;-67
2022/02/16 00:22:40;;;;;;;1.60;1.40;;;4.40;75.30;;;;;;4976999;28;20118;-65
2022/02/16 00:25:06;;;;;;;1.60;1.30;;;4.40;75.20;;;;;;4977190;28;20444;-66
2022/02/16 00:27:32;;;;;;;1.35;1.25;;;4.40;75.20;;;;;;4978489;28;20133;-67
2022/02/16 00:29:58;;;;;;;2.35;1.38;;;4.40;75.20;;;;;;4976630;28;20134;-67
2022/02/16 00:32:23;;;;;;;2.20;1.25;;;4.40;75.10;;;;;;4976639;28;20494;-67
2022/02/16 00:34:49;;;;;;;1.63;1.40;;;4.40;75.00;;;;;;4979810;28;20050;-67
2022/02/16 00:37:15;;;;;;;1.40;1.30;;;4.40;75.00;;;;;;4978045;28;20041;-67
2022/02/16 00:39:41;;;;;;;2.63;1.40;;;4.40;75.00;;;;;;4978019;28;20034;-67
2022/02/16 00:42:07;;;;;;;2.35;1.20;;;4.50;74.80;;;;;;4977387;28;20572;-67
2022/02/16 00:44:32;;;;;;;2.55;1.25;;;4.50;74.80;;;;;;4979248;28;20045;-66
2022/02/16 00:46:58;;;;;;;3.03;1.20;;;4.50;74.80;;;;;;4975906;28;20039;-66
2022/02/16 00:49:24;;;;;;;2.63;1.10;;;4.50;74.80;;;;;;4977105;28;20050;-66
2022/02/16 00:51:49;;;;;;;3.55;1.30;;;4.50;74.60;;;;;;4978414;28;20031;-67
2022/02/16 00:54:15;;;;;;;2.80;1.33;;;4.50;74.60;;;;;;4978368;28;20038;-67
2022/02/16 00:56:41;;;;;;;1.38;1.00;;;4.50;74.60;;;;;;4977753;28;20081;-66
2022/02/16 00:59:07;;;;;;;1.33;1.00;;;4.50;74.50;;;;;;4978109;28;20038;-66
2022/02/16 01:01:32;;;;;;;2.60;1.08;;;4.50;74.50;;;;;;4977523;28;20033;-66
2022/02/16 01:03:58;;;;;;;2.13;1.10;;;4.50;74.40;;;;;;4976870;28;20031;-67
2022/02/16 01:06:24;;;;;;;1.75;1.05;;;4.50;74.40;;;;;;4978483;28;20042;-67
2022/02/16 01:08:49;;;;;;;3.88;0.90;;;4.50;74.40;;;;;;4976540;28;20030;-67
2022/02/16 01:11:15;;;;;;;1.63;1.10;;;4.50;74.40;;;;;;4978039;28;20056;-67
2022/02/16 01:13:41;;;;;;;2.80;1.30;;;4.60;74.40;;;;;;4979970;28;20038;-64
2022/02/16 01:16:06;;;;;;;2.45;1.10;;;4.50;74.30;;;;;;4976926;28;20731;-66
2022/02/16 01:18:32;;;;;;;2.78;1.30;;;4.60;74.30;;;;;;4978005;28;20097;-67
2022/02/16 01:20:58;;;;;;;1.98;1.20;;;4.50;75.10;;;;;;4976357;28;20394;-66
2022/02/16 01:23:23;;;;;;;1.85;1.00;;;4.50;74.30;;;;;;4978977;28;20038;-67
2022/02/16 01:25:49;;;;;;;1.95;1.00;;;4.50;74.20;;;;;;4975806;28;22502;-67
2022/02/16 01:28:15;;;;;;;1.38;0.90;;;4.50;74.10;;;;;;4977018;28;20042;-67
2022/02/16 01:30:41;;;;;;;3.10;1.10;;;4.50;74.20;;;;;;4975288;28;20533;-65
2022/02/16 01:33:06;;;;;;;2.05;1.17;;;4.50;74.30;;;;;;4977047;28;20042;-66
2022/02/16 01:35:32;;;;;;;1.83;1.05;;;4.50;74.10;;;;;;4977704;28;20038;-67
2022/02/16 01:37:57;;;;;;;1.00;0.90;;;4.50;75.00;;;;;;4977569;28;20074;-66
2022/02/16 01:40:23;;;;;;;1.10;0.93;;;4.50;74.20;;;;;;4977518;28;20039;-66
2022/02/16 01:42:49;;;;;;;1.67;1.10;;;4.50;74.10;;;;;;4976659;28;20382;-67
2022/02/16 01:45:14;;;;;;;1.83;1.00;;;4.50;74.10;;;;;;4975541;28;20382;-67
2022/02/16 01:47:40;;;;;;;2.30;1.15;;;4.50;74.10;;;;;;4977635;28;20497;-67
2022/02/16 01:50:08;;;;;;;1.52;1.00;;;4.50;74.10;;;;;;4980853;28;20046;-67
2022/02/16 01:52:34;;;;;;;1.20;0.90;;;4.50;74.10;;;;;;4976592;28;20026;-67
2022/02/16 01:54:59;;;;;;;1.30;1.05;;;4.50;74.00;;;;;;4982527;28;20035;-66
2022/02/16 01:57:26;;;;;;;1.92;1.10;;;4.60;74.10;;;;;;4977257;28;20049;-67
2022/02/16 01:59:53;;;;;;;1.45;1.05;;;4.60;74.00;;;;;;4977515;28;20154;-66
2022/02/16 02:02:19;;;;;;;1.08;0.98;;;4.60;74.00;;;;;;4979741;28;20031;-67
2022/02/16 02:04:45;;;;;;;3.45;1.00;;;4.60;74.00;;;;;;4977963;28;20039;-67
2022/02/16 02:07:11;;;;;;;1.85;0.90;;;4.60;73.90;;;;;;4974931;28;20093;-66
2022/02/16 02:09:37;;;;;;;1.60;1.00;;;4.60;73.80;;;;;;4975765;28;20043;-67
2022/02/16 02:12:03;;;;;;;2.17;0.90;;;4.60;73.70;;;;;;4975765;28;20049;-66
2022/02/16 02:14:29;;;;;;;1.40;0.93;;;4.70;73.70;;;;;;4977598;28;20034;-67
2022/02/16 02:16:54;;;;;;;3.53;1.00;;;4.70;73.60;;;;;;4975181;28;20267;-66
2022/02/16 02:19:20;;;;;;;2.65;1.08;;;4.70;73.60;;;;;;4975608;28;20057;-66
2022/02/16 02:21:47;;;;;;;2.45;1.10;;;4.70;73.40;;;;;;4975927;28;20038;-66
2022/02/16 02:24:13;;;;;;;2.92;0.88;;;4.70;73.40;;;;;;4976954;28;20398;-66
2022/02/16 02:26:38;;;;;;;1.33;1.10;;;4.70;73.30;;;;;;4975490;28;20042;-66
2022/02/16 02:29:04;;;;;;;1.58;0.80;;;4.70;73.30;;;;;;4974547;28;20046;-67
2022/02/16 02:31:32;;;;;;;1.45;0.75;;;4.80;73.30;;;;;;4976614;28;20035;-67
2022/02/16 02:33:58;;;;;;;1.80;0.80;;;4.80;73.30;;;;;;4991922;28;20058;-66
2022/02/16 02:36:24;;;;;;;2.28;0.80;;;4.80;73.20;;;;;;4975048;28;20085;-67
2022/02/16 02:38:50;;;;;;;1.00;0.80;;;4.80;73.10;;;;;;4978660;28;20097;-67
2022/02/16 02:41:16;;;;;;;1.38;0.70;;;4.80;73.10;;;;;;4978513;28;20057;-67
2022/02/16 02:43:44;;;;;;;1.90;0.80;;;4.80;73.10;;;;;;4974556;28;20109;-66
2022/02/16 02:46:09;;;;;;;0.90;0.70;;;4.80;73.00;;;;;;4979180;28;20027;-67
2022/02/16 02:48:35;;;;;;;2.05;0.70;;;4.90;73.00;;;;;;4975059;28;20462;-67
2022/02/16 02:51:01;;;;;;;0.60;0.60;;;4.90;72.90;;;;;;4974930;28;20030;-66
2022/02/16 02:53:27;;;;;;;2.47;0.80;;;4.90;72.80;;;;;;4975909;28;20050;-67
2022/02/16 02:55:52;;;;;;;1.48;0.80;;;5.00;72.70;;;;;;4977014;28;20057;-66
2022/02/16 02:58:18;;;;;;;1.30;0.65;;;5.00;72.70;;;;;;4976595;28;20038;-66
2022/02/16 03:00:44;;;;;;;1.20;0.88;;;5.00;72.60;;;;;;4978055;28;20049;-66
2022/02/16 03:03:10;;;;;;;0.90;0.63;;;5.00;72.40;;;;;;4974563;28;20042;-67
2022/02/16 03:05:35;;;;;;;1.33;0.70;;;5.00;72.40;;;;;;4975165;28;20042;-66
2022/02/16 03:08:01;;;;;;;0.80;0.77;;;5.10;72.40;;;;;;4974811;28;20044;-66
2022/02/16 03:10:27;;;;;;;0.93;0.70;;;5.10;72.20;;;;;;4977125;28;20565;-67
2022/02/16 03:12:53;;;;;;;1.77;0.60;;;5.10;72.00;;;;;;4975231;28;20074;-67
2022/02/16 03:15:18;;;;;;;1.48;0.77;;;5.10;72.00;;;;;;4975512;28;20113;-66
2022/02/16 03:17:44;;;;;;;1.35;0.88;;;5.10;72.00;;;;;;4976399;28;20039;-67
2022/02/16 03:20:10;;;;;;;0.70;0.60;;;5.10;71.90;;;;;;4975541;28;20038;-67
2022/02/16 03:22:39;;;;;;;1.08;0.60;;;5.10;71.70;;;;;;4976266;28;20035;-67
2022/02/16 03:25:10;;;;;;;0.82;0.50;;;5.10;71.60;;;;;;4975935;28;20030;-67
2022/02/16 03:27:36;;;;;;;1.88;0.70;;;5.20;71.50;;;;;;4973764;28;20070;-67
2022/02/16 03:30:06;;;;;;;1.50;0.80;;;5.20;71.50;;;;;;4977030;28;20074;-66
2022/02/16 03:32:31;;;;;;;0.95;0.50;;;5.20;71.30;;;;;;4976077;28;20421;-66
2022/02/16 03:34:57;;;;;;;1.33;0.60;;;5.20;71.30;;;;;;4975844;28;20045;-67
2022/02/16 03:37:22;;;;;;;1.00;0.60;;;5.20;71.30;;;;;;4974931;28;20038;-67
2022/02/16 03:39:48;;;;;;;1.88;0.47;;;5.20;71.30;;;;;;4976338;28;20051;-67
2022/02/16 03:42:14;;;;;;;1.70;0.73;;;5.20;71.20;;;;;;4975718;28;20031;-67
2022/02/16 03:44:43;;;;;;;0.50;0.50;;;5.20;71.20;;;;;;4978803;28;20489;-67
2022/02/16 03:47:09;;;;;;;1.45;0.50;;;5.20;71.20;;;;;;4977090;28;20039;-67
2022/02/16 03:49:35;;;;;;;1.15;0.77;;;5.20;71.20;;;;;;4976465;28;20061;-67
2022/02/16 03:52:00;;;;;;;1.92;1.00;;;5.20;71.20;;;;;;4975742;28;20745;-67
2022/02/16 03:54:26;;;;;;;0.90;0.80;;;5.20;71.20;;;;;;4974576;28;20158;-67
2022/02/16 03:56:51;;;;;;;1.00;0.85;;;5.20;71.20;;;;;;4976493;28;20035;-67
2022/02/16 03:59:18;;;;;;;1.73;0.80;;;5.20;71.00;;;;;;4975763;28;20039;-67
2022/02/16 04:01:43;;;;;;;1.75;0.75;;;5.20;71.20;;;;;;4975300;28;20039;-66
2022/02/16 04:04:09;;;;;;;0.77;0.55;;;5.20;71.10;;;;;;4977849;28;20548;-66
2022/02/16 04:06:35;;;;;;;0.93;0.70;;;5.20;71.20;;;;;;4974649;28;20046;-67
2022/02/16 04:09:00;;;;;;;2.15;0.70;;;5.20;71.30;;;;;;4978546;28;20110;-67
2022/02/16 04:11:26;;;;;;;1.10;0.80;;;5.20;71.20;;;;;;4979700;28;20039;-67
2022/02/16 04:13:53;;;;;;;1.60;0.80;;;5.20;71.20;;;;;;4979679;28;20486;-67
2022/02/16 04:16:23;;;;;;;1.75;1.00;;;5.20;71.20;;;;;;4979518;28;20498;-66
2022/02/16 04:18:49;;;;;;;0.90;0.90;;;5.20;71.20;;;;;;4979327;28;20049;-66
2022/02/16 04:21:14;;;;;;;1.63;0.88;;;5.10;71.10;;;;;;4977189;28;20027;-66
2022/02/16 04:23:43;;;;;;;0.77;0.73;;;5.20;71.20;;;;;;4977334;28;20042;-65
2022/02/16 04:26:10;;;;;;;1.33;0.63;;;5.10;71.00;;;;;;4979688;28;20085;-67
2022/02/16 04:28:36;;;;;;;1.60;0.80;;;5.20;71.20;;;;;;4978470;28;20092;-67
2022/02/16 04:31:01;;;;;;;19.85;7.93;;;5.20;71.20;;;;;;4977349;28;20057;-67
2022/02/16 04:33:27;;;;;;;4.63;3.33;;;5.20;71.20;;;;;;4979637;28;20042;-67
2022/02/16 04:35:53;;;;;;;2.95;2.15;;;5.20;71.20;;;;;;4979150;28;20081;-66
2022/02/16 04:38:18;;;;;;;10.52;5.25;;;5.20;71.20;;;;;;4979079;28;20050;-67
2022/02/16 04:40:44;;;;;;;2.75;2.05;;;5.20;71.20;;;;;;4976448;28;20042;-67
2022/02/16 04:43:10;;;;;;;5.30;1.77;;;5.20;71.20;;;;;;4976833;28;20513;-66
2022/02/16 04:45:36;;;;;;;2.38;1.83;;;5.20;71.20;;;;;;4978836;28;20027;-66
2022/02/16 04:48:04;;;;;;;2.95;1.05;;;5.20;71.10;;;;;;4976308;28;20030;-67
2022/02/16 04:50:30;;;;;;;2.20;1.60;;;5.20;71.10;;;;;;4979734;28;20069;-67
2022/02/16 04:52:56;;;;;;;3.70;1.13;;;5.20;71.10;;;;;;4978232;28;20855;-66
2022/02/16 04:55:26;;;;;;;5.65;3.45;;;5.30;71.20;;;;;;4979737;28;20031;-67
2022/02/16 04:57:53;;;;;;;2.22;1.42;;;5.30;71.20;;;;;;4977951;28;20061;-67
2022/02/16 05:00:20;;;;;;;2.28;1.23;;;5.30;71.20;;;;;;4976749;28;20121;-67
2022/02/16 05:02:46;;;;;;;1.42;0.70;;;5.30;71.10;;;;;;4977615;28;20505;-66
2022/02/16 05:05:11;;;;;;;1.95;0.68;;;5.30;71.00;;;;;;4978115;28;20105;-67
2022/02/16 05:07:37;;;;;;;4.13;1.33;;;5.30;71.00;;;;;;4976086;28;20510;-67
2022/02/16 05:10:04;;;;;;;0.98;0.63;;;5.30;71.00;;;;;;4977163;28;20042;-66
2022/02/16 05:12:35;;;;;;;3.60;2.00;;;5.40;70.80;;;;;;4981130;28;20038;-67
2022/02/16 05:15:01;;;;;;;5.55;3.65;;;5.40;70.80;;;;;;4977878;28;20027;-67
2022/02/16 05:17:27;;;;;;;2.22;1.05;;;5.40;70.80;;;;;;4978646;28;20092;-67
2022/02/16 05:19:53;;;;;;;2.67;1.35;;;5.40;70.70;;;;;;4976157;28;20031;-67
2022/02/16 05:22:20;;;;;;;2.58;2.13;;;5.40;70.70;;;;;;4975781;28;20498;-67
2022/02/16 05:24:46;;;;;;;1.98;1.48;;;5.40;70.60;;;;;;4975550;28;20438;-67
2022/02/16 05:27:11;;;;;;;0.95;0.82;;;5.40;70.70;;;;;;4976415;28;20046;-67
2022/02/16 05:29:37;;;;;;;1.50;1.30;;;5.40;70.70;;;;;;4991126;28;20401;-68
2022/02/16 05:32:03;;;;;;;3.25;0.90;;;5.50;70.70;;;;;;4972725;28;20050;-67
2022/02/16 05:34:29;;;;;;;1.98;1.48;;;5.50;70.70;;;;;;4988857;28;20042;-68
2022/02/16 05:36:55;;;;;;;1.80;1.52;;;5.50;70.60;;;;;;4976537;28;20034;-67
2022/02/16 05:39:20;;;;;;;3.40;1.20;;;5.50;71.60;;;;;;4978505;28;20623;-68
2022/02/16 05:41:47;;;;;;;1.77;0.90;;;5.50;70.60;;;;;;4979191;28;20537;-66
2022/02/16 05:44:12;;;;;;;3.50;1.23;;;5.60;70.60;;;;;;4979173;28;20590;-66
2022/02/16 05:46:38;;;;;;;2.65;1.27;;;5.60;70.60;;;;;;4978930;28;20030;-67
2022/02/16 05:49:08;;;;;;;2.72;0.98;;;5.60;70.60;;;;;;4980457;28;20045;-67
2022/02/16 05:51:34;;;;;;;2.50;0.90;;;5.60;70.50;;;;;;4978551;28;20064;-67
2022/02/16 05:54:00;;;;;;;1.98;1.02;;;5.70;71.50;;;;;;4979274;28;20054;-64
2022/02/16 05:56:25;;;;;;;1.05;0.77;;;5.70;70.60;;;;;;4979060;28;20477;-67
2022/02/16 05:58:51;;;;;;;2.05;0.80;;;5.80;70.70;;;;;;4979991;28;20397;-67
2022/02/16 06:01:17;;;;;;;1.10;0.60;;;5.70;70.50;;;;;;4979197;28;20501;-67
2022/02/16 06:03:44;;;;;;;0.75;0.70;;;5.80;70.50;;;;;;4980962;28;20034;-67
2022/02/16 06:06:10;;;;;;;1.35;0.70;;;5.80;70.60;;;;;;4979698;28;20035;-68
2022/02/16 06:08:35;;;;;;;1.30;0.80;;;5.80;70.60;;;;;;4979891;28;20100;-66
2022/02/16 06:11:02;;;;;;;0.80;0.60;;;5.80;70.60;;;;;;4981292;28;20553;-66
2022/02/16 06:13:28;;;;;;;1.00;0.60;;;5.90;70.80;;;;;;4978548;28;20045;-67
2022/02/16 06:15:54;;;;;;;1.23;0.80;;;5.90;70.90;;;;;;4978873;28;20043;-66
2022/02/16 06:18:20;;;;;;;1.67;1.05;;;5.90;71.00;;;;;;4978759;28;20050;-67
2022/02/16 06:20:45;;;;;;;2.03;0.82;;;5.90;71.00;;;;;;4977370;28;20051;-67
2022/02/16 06:23:11;;;;;;;1.33;0.90;;;6.00;71.20;;;;;;4979592;28;20346;-66
2022/02/16 06:25:36;;;;;;;1.02;0.90;;;5.90;71.20;;;;;;4978171;28;20051;-67
2022/02/16 06:28:03;;;;;;;0.65;0.65;;;6.00;71.30;;;;;;4979851;28;20034;-67
2022/02/16 06:30:29;;;;;;;0.93;0.77;;;6.00;71.30;;;;;;4979034;28;20034;-67
2022/02/16 06:32:55;;;;;;;2.40;1.00;;;6.00;71.30;;;;;;4976348;28;20038;-67
2022/02/16 06:35:21;;;;;;;1.27;0.75;;;6.00;71.30;;;;;;4978243;28;20046;-64
2022/02/16 06:37:46;;;;;;;1.33;0.93;;;6.10;71.30;;;;;;4978672;28;20513;-66
2022/02/16 06:40:13;;;;;;;1.95;1.33;;;6.00;71.20;;;;;;4993759;28;20082;-65
2022/02/16 06:42:39;;;;;;;2.88;1.35;;;6.10;71.10;;;;;;4977089;28;20038;-67
2022/02/16 06:45:09;;;;;;;4.05;2.30;;;6.10;71.00;;;;;;4978752;28;20256;-66
2022/02/16 06:47:35;;;;;;;1.73;1.08;;;6.00;70.90;;;;;;4978816;28;20509;-68
2022/02/16 06:50:02;;;;;;;1.30;1.00;;;6.00;70.80;;;;;;4978404;28;20117;-66
2022/02/16 06:52:28;;;;;;;2.47;1.10;;;6.00;70.80;;;;;;4979685;28;20034;-66
2022/02/16 06:54:54;;;;;;;2.10;1.75;;;6.00;70.80;;;;;;4978272;28;20049;-67
2022/02/16 06:57:20;;;;;;;7.55;4.80;;;6.00;70.90;;;;;;4993483;28;20409;-67
2022/02/16 06:59:46;;;;;;;4.45;2.53;;;6.00;71.00;;;;;;4978197;28;20038;-67
2022/02/16 07:02:11;;;;;;;5.05;1.90;;;5.90;71.00;;;;;;4978466;28;20069;-67
2022/02/16 07:04:37;;;;;;;1.95;1.30;;;5.90;71.20;;;;;;4977516;28;20528;-67
2022/02/16 07:07:04;;;;;;;1.45;1.02;;;5.90;71.30;;;;;;4980713;28;20057;-67
2022/02/16 07:09:30;;;;;;;1.90;0.70;;;5.90;71.40;;;;;;4981082;28;20117;-67
2022/02/16 07:11:56;;;;;;;1.08;0.80;;;5.90;71.60;;;;;;4979076;28;20142;-67
2022/02/16 07:14:25;;;;;;;2.08;0.85;;;5.90;71.90;;;;;;4978141;28;20403;-67
2022/02/16 07:16:51;;;;;;;1.00;0.88;;;6.00;72.40;;;;;;4977683;28;21066;-67
2022/02/16 07:19:19;;;;;;;1.05;0.80;;;6.00;72.20;;;;;;4979910;28;20035;-66
2022/02/16 07:21:45;;;;;;;1.38;0.90;;;6.00;72.50;;;;;;4978481;28;20456;-67
2022/02/16 07:24:11;;;;;;;1.98;1.25;;;6.00;72.60;;;;;;4979236;28;20085;-67
2022/02/16 07:26:37;;;;;;;1.35;0.82;;;6.10;72.70;;;;;;4979444;28;20412;-66
2022/02/16 07:29:03;;;;;;;1.13;1.05;;;6.10;72.70;;;;;;4976855;28;20027;-66
2022/02/16 07:31:29;;;;;;;1.73;0.90;;;6.10;72.80;;;;;;4978670;28;20038;-67
2022/02/16 07:33:55;;;;;;;0.80;0.80;;;6.20;72.80;;;;;;4979193;28;20038;-68
2022/02/16 07:36:21;;;;;;;1.55;0.77;;;6.20;72.90;;;;;;4979510;28;20038;-66
2022/02/16 07:38:47;;;;;;;0.98;0.80;;;6.20;72.90;;;;;;4978609;28;20030;-67
2022/02/16 07:41:13;;;;;;;1.95;1.10;;;6.30;73.00;;;;;;4978340;28;20039;-67
2022/02/16 07:43:38;;;;;;;0.70;0.70;;;6.30;72.90;;;;;;4981227;28;20035;-66
2022/02/16 07:46:04;;;;;;;0.88;0.80;;;6.30;73.90;;;;;;4984643;28;20038;-67
2022/02/16 07:48:29;;;;;;;1.73;1.00;;;6.30;73.00;;;;;;4983390;28;20564;-66
2022/02/16 07:50:55;;;;;;;0.90;0.75;;;6.30;73.10;;;;;;4984083;28;20031;-66
2022/02/16 07:53:21;;;;;;;1.00;0.80;;;6.30;73.20;;;;;;4996532;28;20057;-66
2022/02/16 07:55:46;;;;;;;2.03;0.60;;;6.40;73.40;;;;;;4983788;28;20417;-67
2022/02/16 07:58:12;;;;;;;1.63;0.80;;;6.30;73.10;;;;;;4978248;28;20047;-66
2022/02/16 08:00:38;;;;;;;1.85;1.20;;;6.40;73.30;;;;;;4980015;28;20413;-66
2022/02/16 08:03:05;;;;;;;1.23;0.70;;;6.40;73.50;;;;;;4983522;28;20085;-67
2022/02/16 08:05:31;;;;;;;3.13;1.10;;;6.40;73.80;;;;;;4981957;28;20037;-67
2022/02/16 08:07:57;;;;;;;0.50;0.43;;;6.40;73.80;;;;;;4982579;28;20433;-67
2022/02/16 08:10:23;;;;;;;0.85;0.60;;;6.40;73.80;;;;;;4983325;28;20045;-66
2022/02/16 08:12:56;;;;;;;0.70;0.63;;;6.40;73.80;;;;;;4980474;28;20131;-66
2022/02/16 08:15:27;;;;;;;0.88;0.70;;;6.50;74.00;;;;;;4981806;28;20034;-66
2022/02/16 08:17:53;;;;;;;1.75;0.80;;;6.50;74.50;;;;;;4981296;28;20129;-67
2022/02/16 08:20:19;;;;;;;0.70;0.70;;;6.50;75.00;;;;;;4983337;28;20564;-66
2022/02/16 08:22:45;;;;;;;0.98;0.60;;;6.50;74.20;;;;;;4981474;28;20257;-66
2022/02/16 08:25:11;;;;;;;0.95;0.68;;;6.60;74.40;;;;;;4982774;28;20686;-66
2022/02/16 08:27:37;;;;;;;0.60;0.60;;;6.50;74.40;;;;;;4982232;28;20054;-66
2022/02/16 08:30:05;;;;;;;0.57;0.57;;;6.60;74.60;;;;;;4985122;28;20509;-66
2022/02/16 08:32:31;;;;;;;0.60;0.50;;;6.60;74.60;;;;;;4982627;28;20066;-66
2022/02/16 08:34:56;;;;;;;1.10;0.68;;;6.70;74.70;;;;;;4982660;28;20311;-67
2022/02/16 08:37:22;;;;;;;0.50;0.50;;;6.70;74.60;;;;;;4982426;28;20034;-66
2022/02/16 08:39:48;;;;;;;2.38;1.00;;;6.70;74.50;;;;;;4981866;28;20414;-67
2022/02/16 08:42:13;;;;;;;1.27;1.00;;;6.70;74.70;;;;;;4982199;28;20041;-67
2022/02/16 08:44:39;;;;;;;1.35;0.70;;;6.70;74.50;;;;;;4982178;28;20382;-66
2022/02/16 08:47:05;;;;;;;1.98;0.77;;;6.70;74.80;;;;;;4982254;28;20096;-66
2022/02/16 08:49:31;;;;;;;1.80;0.85;;;6.70;74.90;;;;;;4980383;28;20278;-66
2022/02/16 08:51:57;;;;;;;1.92;0.73;;;6.80;75.20;;;;;;4980857;28;20034;-66
2022/02/16 08:54:22;;;;;;;1.10;1.00;;;6.70;75.00;;;;;;4980857;28;20053;-66
2022/02/16 08:56:49;;;;;;;0.73;0.73;;;6.80;74.90;;;;;;4981264;28;20046;-66
2022/02/16 08:59:15;;;;;;;1.35;0.60;;;6.80;75.00;;;;;;4981424;28;20042;-64
2022/02/16 09:01:42;;;;;;;0.88;0.77;;;6.80;75.20;;;;;;4977918;28;20181;-67
2022/02/16 09:04:08;;;;;;;1.20;0.50;;;6.80;75.40;;;;;;4978390;28;20596;-67
2022/02/16 09:06:34;;;;;;;0.93;0.60;;;6.80;75.50;;;;;;4980480;28;20129;-67
2022/02/16 09:09:01;;;;;;;3.22;0.50;;;6.80;76.00;;;;;;4980357;28;20062;-66
2022/02/16 09:11:29;;;;;;;0.75;0.50;;;6.80;76.10;;;;;;4982136;28;20424;-66
2022/02/16 09:13:56;;;;;;;1.05;0.95;;;6.80;76.10;;;;;;4980860;28;20130;-66
2022/02/16 09:16:22;;;;;;;0.70;0.70;;;6.90;76.30;;;;;;4979418;28;20030;-65
2022/02/16 09:18:47;;;;;;;1.60;0.80;;;6.90;76.30;;;;;;4979609;28;22405;-66
2022/02/16 09:21:13;;;;;;;2.08;0.80;;;6.90;76.60;;;;;;4979694;28;20034;-67
2022/02/16 09:23:41;;;;;;;1.13;0.70;;;6.90;76.60;;;;;;4979285;28;20031;-66
2022/02/16 09:26:07;;;;;;;1.02;0.68;;;6.90;76.60;;;;;;4980121;28;20035;-67
2022/02/16 09:28:33;;;;;;;1.20;0.85;;;7.00;76.50;;;;;;4978988;28;20036;-66
2022/02/16 09:31:00;;;;;;;0.98;0.93;;;7.00;76.80;;;;;;4981442;28;20137;-66
2022/02/16 09:33:27;;;;;;;1.95;0.60;;;7.00;76.80;;;;;;4978655;28;20066;-66
2022/02/16 09:35:53;;;;;;;1.17;0.82;;;7.00;77.00;;;;;;4978318;28;20031;-66
2022/02/16 09:38:19;;;;;;;3.08;1.00;;;7.00;77.00;;;;;;4978905;28;20053;-66
2022/02/16 09:40:46;;;;;;;1.30;1.10;;;7.00;76.90;;;;;;4978884;28;20039;-66
2022/02/16 09:43:14;;;;;;;2.33;1.50;;;7.00;77.00;;;;;;4980268;28;20111;-66
2022/02/16 09:45:40;;;;;;;3.15;0.88;;;7.00;77.00;;;;;;4978742;28;20026;-66
2022/02/16 09:48:06;;;;;;;3.17;1.25;;;7.00;77.10;;;;;;4982040;28;20528;-65
2022/02/16 09:50:32;;;;;;;1.67;1.27;;;7.00;77.60;;;;;;4978701;28;20034;-65
2022/02/16 09:52:58;;;;;;;1.60;0.85;;;7.00;77.70;;;;;;4979627;28;20029;-65
2022/02/16 09:55:24;;;;;;;1.70;1.60;;;7.00;77.70;;;;;;4979120;28;20035;-66
2022/02/16 09:57:50;;;;;;;1.48;1.30;;;7.00;78.20;;;;;;4980573;28;20093;-66
2022/02/16 10:00:16;;;;;;;2.35;1.00;;;7.00;78.00;;;;;;4979972;28;20034;-66
2022/02/16 10:02:44;;;;;;;1.85;1.50;;;7.00;78.40;;;;;;4978255;28;20046;-66
2022/02/16 10:05:11;;;;;;;4.70;2.10;;;7.00;78.10;;;;;;4980611;28;20476;-66
2022/02/16 10:07:44;;;;;;;1.60;0.95;;;7.00;78.00;;;;;;4977596;28;20043;-66
2022/02/16 10:10:15;;;;;;;2.00;1.45;;;7.00;78.40;;;;;;4979255;28;20022;-66
2022/02/16 10:12:44;;;;;;;1.30;1.20;;;7.10;78.00;;;;;;4978363;28;20034;-66
2022/02/16 10:15:12;;;;;;;2.92;1.60;;;7.00;78.00;;;;;;4982299;28;20026;-66
2022/02/16 10:17:38;;;;;;;6.65;3.75;;;7.00;78.00;;;;;;4981465;28;20035;-65
2022/02/16 10:20:06;;;;;;;1.08;1.08;;;7.10;78.40;;;;;;4981869;28;20030;-65
2022/02/16 10:22:44;;;;;;;1.40;0.90;;;7.00;78.20;;;;;;4979703;28;20027;-65
2022/02/16 10:25:19;;;;;;;0.95;0.77;;;7.10;78.80;;;;;;4981616;28;20038;-64
2022/02/16 10:28:08;;;;;;;1.73;0.80;;;7.10;78.70;;;;;;4976233;28;20038;-66
2022/02/16 10:30:53;;;;;;;1.40;1.13;;;7.10;79.30;;;;;;4980760;28;20066;-66
2022/02/16 10:33:20;;;;;;;2.10;0.93;;;7.10;78.90;;;;;;4979037;28;20040;-65
2022/02/16 10:35:47;;;;;;;1.60;1.50;;;7.10;78.90;;;;;;4980000;28;20066;-65
2022/02/16 10:38:13;;;;;;;3.13;1.55;;;7.10;79.10;;;;;;4978370;28;20045;-66
2022/02/16 10:40:40;;;;;;;0.85;0.85;;;7.10;78.70;;;;;;4980643;28;20054;-66
2022/02/16 10:43:05;;;;;;;3.03;1.40;;;7.10;78.80;;;;;;4981270;28;20065;-65
2022/02/16 10:45:33;;;;;;;1.77;0.70;;;7.20;79.10;;;;;;4981510;28;20149;-66
2022/02/16 10:48:07;;;;;;;0.95;0.90;;;7.20;78.70;;;;;;4981644;28;20129;-66
2022/02/16 10:50:48;;;;;;;0.70;0.70;;;7.20;79.00;;;;;;4980474;28;20034;-66
2022/02/16 10:53:28;;;;;;;1.95;1.10;;;7.20;79.20;;;;;;4980583;28;20131;-65
2022/02/16 10:55:55;;;;;;;1.50;1.13;;;7.20;78.90;;;;;;4981521;28;20044;-66
2022/02/16 10:58:22;;;;;;;1.83;1.20;;;7.20;78.70;;;;;;4980055;28;20500;-65
2022/02/16 11:00:51;;;;;;;1.10;1.00;;;7.20;78.60;;;;;;4981142;28;20050;-65
2022/02/16 11:03:26;;;;;;;0.80;0.80;;;7.20;78.70;;;;;;4982468;28;20513;-66
2022/02/16 11:05:55;;;;;;;1.88;0.70;;;7.20;78.80;;;;;;4981942;28;20035;-66
2022/02/16 11:08:25;;;;;;;1.65;0.80;;;7.20;78.80;;;;;;4980568;28;20108;-67
2022/02/16 11:10:52;;;;;;;1.25;1.15;;;7.20;78.70;;;;;;4980280;28;20034;-64
2022/02/16 11:13:26;;;;;;;2.03;1.85;;;7.20;78.70;;;;;;4983019;28;20416;-67
2022/02/16 11:15:53;;;;;;;2.00;1.83;;;7.20;78.90;;;;;;4981687;28;20031;-65
2022/02/16 11:18:23;;;;;;;1.00;0.90;;;7.20;78.80;;;;;;4984344;28;20046;-65
2022/02/16 11:21:07;;;;;;;0.70;0.70;;;7.20;79.00;;;;;;4982719;28;20053;-66
2022/02/16 11:23:44;;;;;;;1.92;0.63;;;7.20;79.70;;;;;;4984261;28;20561;-66
2022/02/16 11:26:29;;;;;;;1.52;1.25;;;7.30;79.40;;;;;;4987775;28;20034;-67
2022/02/16 11:28:56;;;;;;;0.65;0.60;;;7.30;79.60;;;;;;4988768;28;20050;-67
2022/02/16 11:31:30;;;;;;;1.73;1.60;;;7.40;79.20;;;;;;4985070;28;20034;-66
2022/02/16 11:34:11;;;;;;;0.70;0.70;;;7.40;79.40;;;;;;4983538;28;20117;-67
2022/02/16 11:36:53;;;;;;;0.73;0.73;;;7.40;80.00;;;;;;4985192;28;20035;-65
2022/02/16 11:39:39;;;;;;;1.27;0.82;;;7.50;79.50;;;;;;4985277;28;20038;-65
2022/02/16 11:42:05;;;;;;;2.05;1.55;;;7.50;80.00;;;;;;4982487;28;20034;-65
2022/02/16 11:44:52;;;;;;;3.80;2.45;;;7.50;79.10;;;;;;4983696;28;20073;-66
2022/02/16 11:47:33;;;;;;;1.73;1.63;;;7.60;79.40;;;;;;4999432;28;20048;-66
2022/02/16 11:50:00;;;;;;;4.35;3.30;;;7.60;78.90;;;;;;4983084;28;20584;-66
2022/02/16 11:52:52;;;;;;;2.13;1.58;;;7.70;78.60;;;;;;4984386;28;20413;-66
2022/02/16 11:55:28;;;;;;;1.33;0.90;;;7.70;78.70;;;;;;4998926;28;20035;-66
2022/02/16 11:57:54;;;;;;;1.30;1.20;;;7.70;78.50;;;;;;4985162;28;20140;-66
2022/02/16 12:00:21;;;;;;;1.25;1.15;;;7.80;78.60;;;;;;4983081;28;20548;-65
2022/02/16 12:03:12;;;;;;;3.67;1.63;;;7.80;78.50;;;;;;4982634;28;20053;-66
2022/02/16 12:05:49;;;;;;;1.35;1.23;;;7.90;78.80;;;;;;4978742;28;20045;-67
2022/02/16 12:08:20;;;;;;;2.55;1.90;;;7.90;78.70;;;;;;4983450;28;20657;-66
2022/02/16 12:10:49;;;;;;;2.42;1.70;;;7.90;78.60;;;;;;4982797;28;20501;-67
2022/02/16 12:13:15;;;;;;;1.70;1.60;;;8.00;78.60;;;;;;4984139;28;20433;-66
2022/02/16 12:15:42;;;;;;;7.45;4.38;;;8.00;78.40;;;;;;4983110;28;20035;-67
2022/02/16 12:18:16;;;;;;;2.15;1.60;;;8.10;78.40;;;;;;4983055;28;20636;-66
2022/02/16 12:20:48;;;;;;;2.30;1.70;;;8.10;78.40;;;;;;4983071;28;20521;-66
2022/02/16 12:23:13;;;;;;;2.45;1.70;;;8.20;78.50;;;;;;4983524;28;20253;-66
2022/02/16 12:25:39;;;;;;;3.08;2.70;;;8.20;78.20;;;;;;4984807;28;20508;-67
2022/02/16 12:28:05;;;;;;;1.33;1.13;;;8.30;78.20;;;;;;4984464;28;20046;-66
2022/02/16 12:30:41;;;;;;;1.40;1.30;;;8.30;78.00;;;;;;4983869;28;20569;-66
2022/02/16 12:33:22;;;;;;;1.60;0.90;;;8.40;78.10;;;;;;4985457;28;20061;-67
2022/02/16 12:35:48;;;;;;;1.02;0.93;;;8.40;78.20;;;;;;4983708;28;20037;-67
2022/02/16 12:38:27;;;;;;;1.20;1.10;;;8.50;77.90;;;;;;4981944;28;20034;-66
2022/02/16 12:40:53;;;;;;;0.80;0.80;;;8.60;78.30;;;;;;4996978;28;20042;-65
2022/02/16 12:43:21;;;;;;;0.80;0.80;;;8.60;78.00;;;;;;4984191;28;20419;-66
2022/02/16 12:45:48;;;;;;;1.48;1.25;;;8.60;77.90;;;;;;4981894;28;20081;-66
2022/02/16 12:48:16;;;;;;;2.45;1.67;;;8.70;77.90;;;;;;4981062;28;20315;-66
2022/02/16 12:50:43;;;;;;;0.80;0.80;;;8.70;77.80;;;;;;4978553;28;20050;-66
2022/02/16 12:53:10;;;;;;;0.90;0.80;;;8.70;77.70;;;;;;4981499;28;20031;-66
2022/02/16 12:55:57;;;;;;;1.92;1.20;;;8.80;77.70;;;;;;4980759;28;20034;-66
2022/02/16 12:58:24;;;;;;;1.10;0.80;;;8.80;77.80;;;;;;4981681;28;20041;-66